Pontos — WDC8486 — position and weather

sailwx.info

Track history (hours):
 
Tides and Currents Weather Stations Pressure Air Temp Water Temp Dewpoint Dewpoint Depression Visibility Wind Speed Wind Dir Waves Ship Positions

Pontos

Owner: Pontos Fisheries, Inc., Montauk, NY. More information available from US FCC via Universal Licensing System and Coast Guard Vessel Documentation Center.

Last reported at 2016-May-23 10:33 UTC. Time now 2016-Jul-31 09:27 UTC.
Position N 38°56' W 074°51'.
Warning: this ship's position is months out of date.

Length 31 m.

Type: Fishing. MMSI: 367087860.

Date/timePositionNaut miles runAvg speedWind from/ knotsBaromVisibWave heightAir tempDewpointWater temp
2016-May-23 10:33N 38°56' W 074°51'15 7.5
2016-May-23 08:33N 39°08' W 074°39'31 7.3
2016-May-23 04:19N 39°32' W 074°13'6 7.5
2016-May-23 03:32N 39°37' W 074°10'7 7.5
2016-May-23 02:33N 39°43' W 074°04'7 6.6
2016-May-23 01:32N 39°49' W 074°01'4 4.5
2016-May-23 00:32N 39°54' W 074°01'41 1.3
2016-May-21 16:31N 39°59' W 073°08'2 0.8
2016-May-21 14:33N 40°00' W 073°09'0 0.4
2016-May-21 13:34N 40°01' W 073°09'0 0.1
2016-May-21 12:33N 40°01' W 073°09'1 0.5
2016-May-21 11:28N 40°01' W 073°09'1 0.8
2016-May-21 10:33N 40°01' W 073°09'3 2.8
2016-May-21 09:33N 40°02' W 073°12'2 1.9
2016-May-21 08:33N 40°04' W 073°13'5 4.9
2016-May-21 07:31N 40°00' W 073°08'11 0.4
2016-May-20 02:33N 39°52' W 073°18'3 0.7
2016-May-19 22:10N 39°55' W 073°21'31 2.6
2016-May-19 10:22N 39°46' W 073°60'5 6.5
2016-May-19 09:32N 39°41' W 073°57'8 7.9
2016-May-19 08:33N 39°35' W 074°02'8 8.0
2016-May-19 07:33N 39°29' W 074°08'  
Track history (hours):
 
Tides and Currents Weather Stations Pressure Air Temp Water Temp Dewpoint Dewpoint Depression Visibility Wind Speed Wind Dir Waves Ship Positions

Pontos

Owner: Pontos Fisheries, Inc., Montauk, NY. More information available from US FCC via Universal Licensing System and Coast Guard Vessel Documentation Center.

Last reported at 2016-May-23 10:33 UTC. Time now 2016-Jul-31 09:27 UTC.
Position N 38°56' W 074°51'.
Warning: this ship's position is months out of date.

Length 31 m.

Type: Fishing. MMSI: 367087860.

Date/timePositionNaut miles runAvg speedWind from/ knotsBaromVisibWave heightAir tempDewpointWater temp
2016-May-23 10:33N 38°56' W 074°51'15 7.5
2016-May-23 08:33N 39°08' W 074°39'31 7.3
2016-May-23 04:19N 39°32' W 074°13'6 7.5
2016-May-23 03:32N 39°37' W 074°10'7 7.5
2016-May-23 02:33N 39°43' W 074°04'7 6.6
2016-May-23 01:32N 39°49' W 074°01'4 4.5
2016-May-23 00:32N 39°54' W 074°01'41 1.3
2016-May-21 16:31N 39°59' W 073°08'2 0.8
2016-May-21 14:33N 40°00' W 073°09'0 0.4
2016-May-21 13:34N 40°01' W 073°09'0 0.1
2016-May-21 12:33N 40°01' W 073°09'1 0.5
2016-May-21 11:28N 40°01' W 073°09'1 0.8
2016-May-21 10:33N 40°01' W 073°09'3 2.8
2016-May-21 09:33N 40°02' W 073°12'2 1.9
2016-May-21 08:33N 40°04' W 073°13'5 4.9
2016-May-21 07:31N 40°00' W 073°08'11 0.4
2016-May-20 02:33N 39°52' W 073°18'3 0.7
2016-May-19 22:10N 39°55' W 073°21'31 2.6
2016-May-19 10:22N 39°46' W 073°60'5 6.5
2016-May-19 09:32N 39°41' W 073°57'8 7.9
2016-May-19 08:33N 39°35' W 074°02'8 8.0
2016-May-19 07:33N 39°29' W 074°08'  

Dump ship's entire track history